Time;durP1;ratioP1;P1;durP2;ratioP2;P2;SDS_P1;SDS_P2;PMS_P1;PMS_P2;Temp;Humidity;BMP_temperature;BMP_pressure;BME280_temperature;BME280_humidity;BME280_pressure;Samples;Min_cycle;Max_cycle;Signal;HPM_P1;HPM_P2
2021/03/05 00:01:15;;;;;;;71.77;46.08;;;;;;;4.74;78.40;96180.00;1741029;82;21095;-79
2021/03/05 00:03:41;;;;;;;73.95;47.27;;;;;;;4.75;78.37;96185.47;1741038;82;21146;-80
2021/03/05 00:06:07;;;;;;;73.05;47.45;;;;;;;4.70;78.38;96185.09;1741148;82;21326;-80
2021/03/05 00:08:33;;;;;;;76.65;49.88;;;;;;;4.70;78.60;96185.09;1741085;82;21353;-79
2021/03/05 00:10:59;;;;;;;75.62;47.85;;;;;;;4.69;78.53;96182.19;1741193;82;21116;-79
2021/03/05 00:13:26;;;;;;;68.50;44.65;;;;;;;4.66;78.54;96177.83;1741057;81;21143;-81
2021/03/05 00:15:52;;;;;;;68.95;43.68;;;;;;;4.69;78.42;96180.09;1740756;82;21127;-81
2021/03/05 00:18:18;;;;;;;68.37;45.73;;;;;;;4.69;78.40;96168.03;1740483;82;21131;-81
2021/03/05 00:20:51;;;;;;;74.75;47.55;;;;;;;4.74;78.50;96168.89;1740408;82;21346;-82
2021/03/05 00:23:17;;;;;;;71.85;47.35;;;;;;;4.75;77.94;96173.89;1740378;82;21153;-82
2021/03/05 00:25:43;;;;;;;75.42;46.15;;;;;;;4.67;77.80;96162.23;1740463;82;21143;-82
2021/03/05 00:28:09;;;;;;;74.10;46.92;;;;;;;4.65;77.83;96163.34;1740691;82;21119;-81
2021/03/05 00:30:35;;;;;;;79.03;49.85;;;;;;;4.59;77.77;96170.39;1740397;82;22059;-81
2021/03/05 00:33:02;;;;;;;73.47;46.75;;;;;;;4.51;77.43;96168.55;1740720;81;21261;-81
2021/03/05 00:35:28;;;;;;;75.55;47.55;;;;;;;4.51;77.54;96169.35;1741199;82;21115;-82
2021/03/05 00:37:54;;;;;;;77.67;49.33;;;;;;;4.51;77.39;96165.50;1741235;82;21083;-82
2021/03/05 00:40:22;;;;;;;73.83;48.92;;;;;;;4.46;77.41;96165.63;1741382;82;21102;-82
2021/03/05 00:42:48;;;;;;;73.70;48.48;;;;;;;4.41;77.28;96171.70;1741193;81;21129;-82
2021/03/05 00:45:16;;;;;;;72.45;46.18;;;;;;;4.35;77.41;96173.08;1741197;81;21131;-82
2021/03/05 00:47:43;;;;;;;79.80;51.77;;;;;;;4.30;77.31;96180.44;1741128;81;21139;-82
2021/03/05 00:50:09;;;;;;;83.78;52.90;;;;;;;4.27;77.46;96174.80;1741473;82;21107;-82
2021/03/05 00:52:35;;;;;;;85.45;53.35;;;;;;;4.25;77.44;96175.42;1741230;82;21079;-82
2021/03/05 00:55:04;;;;;;;78.25;47.85;;;;;;;4.25;77.42;96181.85;1741245;82;21119;-82
2021/03/05 00:57:30;;;;;;;76.45;48.50;;;;;;;4.25;77.42;96183.14;1740734;82;21511;-82
2021/03/05 00:59:57;;;;;;;73.33;48.15;;;;;;;4.18;77.26;96188.84;1741106;82;21076;-82
2021/03/05 01:02:23;;;;;;;77.95;49.03;;;;;;;4.15;77.35;96183.20;1741528;82;21127;-82
2021/03/05 01:04:49;;;;;;;75.52;47.78;;;;;;;4.13;77.56;96185.91;1741177;82;21115;-82
2021/03/05 01:07:15;;;;;;;67.12;43.02;;;;;;;4.12;77.71;96183.02;1741288;82;21131;-82
2021/03/05 01:09:41;;;;;;;62.03;40.23;;;;;;;4.02;77.71;96182.27;1741216;81;21115;-82
2021/03/05 01:12:09;;;;;;;57.90;38.02;;;;;;;3.95;77.73;96168.87;1741253;82;21139;-81
2021/03/05 01:14:35;;;;;;;51.10;36.98;;;;;;;3.88;77.75;96170.72;1741191;82;21099;-81
2021/03/05 01:17:01;;;;;;;53.60;36.33;;;;;;;3.86;77.79;96176.48;1741469;82;21143;-81
2021/03/05 01:19:27;;;;;;;54.95;37.05;;;;;;;3.81;77.88;96168.41;1720228;82;21238;-81
2021/03/05 01:21:53;;;;;;;45.85;34.08;;;;;;;3.79;77.91;96163.08;1740646;82;21353;-81
2021/03/05 01:24:19;;;;;;;51.25;34.78;;;;;;;3.72;77.84;96158.98;1740402;82;21131;-81
2021/03/05 01:26:46;;;;;;;50.45;32.23;;;;;;;3.56;77.92;96162.18;1740791;82;21126;-81
2021/03/05 01:29:12;;;;;;;44.42;30.15;;;;;;;3.47;77.92;96161.77;1740423;82;21237;-81
2021/03/05 01:31:38;;;;;;;43.15;30.75;;;;;;;3.46;77.90;96160.63;1740635;82;21143;-81
2021/03/05 01:34:05;;;;;;;45.12;31.05;;;;;;;3.43;77.57;96156.59;1740340;82;21123;-81
2021/03/05 01:36:32;;;;;;;44.93;31.55;;;;;;;3.40;77.58;96156.05;1720138;82;21346;-81
2021/03/05 01:38:58;;;;;;;39.75;27.80;;;;;;;3.37;77.60;96154.58;1741174;82;21225;-81
2021/03/05 01:41:24;;;;;;;41.13;29.52;;;;;;;3.37;77.62;96163.56;1720516;82;21095;-81
2021/03/05 01:43:50;;;;;;;41.13;28.57;;;;;;;3.23;77.51;96163.55;1741192;82;21167;-81
2021/03/05 01:46:20;;;;;;;40.55;28.55;;;;;;;3.14;77.47;96170.84;1741079;82;21083;-81
2021/03/05 01:48:46;;;;;;;41.70;29.35;;;;;;;3.05;77.43;96168.29;1741400;82;21370;-81
2021/03/05 01:51:21;;;;;;;40.38;28.27;;;;;;;3.00;77.35;96158.45;1741341;82;21254;-81
2021/03/05 01:53:48;;;;;;;38.88;28.75;;;;;;;2.95;77.25;96158.87;1740741;82;21123;-81
2021/03/05 01:56:37;;;;;;;39.78;28.65;;;;;;;2.93;77.37;96157.41;1741240;82;21327;-81
2021/03/05 01:59:05;;;;;;;41.50;29.02;;;;;;;2.90;77.44;96158.47;1741243;82;21076;-81
2021/03/05 02:01:31;;;;;;;39.63;28.50;;;;;;;2.84;77.57;96153.91;1741278;82;21233;-81
2021/03/05 02:03:57;;;;;;;40.55;26.00;;;;;;;2.81;77.65;96164.45;1741111;82;21493;-81
2021/03/05 02:06:24;;;;;;;37.45;26.12;;;;;;;2.75;77.46;96168.03;1741192;82;21238;-81
2021/03/05 02:08:50;;;;;;;38.45;25.15;;;;;;;2.60;77.53;96165.92;1741190;82;21123;-80
2021/03/05 02:11:21;;;;;;;38.83;26.27;;;;;;;2.59;77.72;96166.03;1741330;82;21115;-81
2021/03/05 02:13:47;;;;;;;36.77;25.10;;;;;;;2.59;77.69;96169.41;1741544;81;21303;-81
2021/03/05 02:16:37;;;;;;;37.30;26.45;;;;;;;2.51;77.73;96168.02;1741214;82;21122;-81
2021/03/05 02:19:36;;;;;;;33.25;24.02;;;;;;;2.40;77.90;96170.23;1740991;82;21134;-80
2021/03/05 02:22:14;;;;;;;38.98;27.95;;;;;;;2.29;78.01;96163.19;1741203;82;21253;-80
2021/03/05 02:24:51;;;;;;;39.63;26.77;;;;;;;2.17;78.49;96156.57;1741223;81;21119;-80
2021/03/05 02:27:56;;;;;;;40.65;27.80;;;;;;;2.18;78.71;96152.59;1740218;82;21330;-80
2021/03/05 02:31:01;;;;;;;45.83;28.55;;;;;;;2.25;78.61;96149.00;1741176;82;21131;-81
2021/03/05 02:33:31;;;;;;;44.60;28.83;;;;;;;2.29;78.61;96142.20;1741171;82;21130;-81
2021/03/05 02:35:57;;;;;;;42.40;29.70;;;;;;;2.32;78.69;96141.92;1739380;82;21134;-80
2021/03/05 02:38:23;;;;;;;38.13;28.90;;;;;;;2.34;78.75;96142.59;1741156;81;21424;-80
2021/03/05 02:40:51;;;;;;;39.33;24.82;;;;;;;2.34;78.77;96134.90;1741128;82;21118;-80
2021/03/05 02:43:20;;;;;;;42.08;26.93;;;;;;;2.28;78.58;96136.74;1741113;82;21504;-80
2021/03/05 02:45:51;;;;;;;38.65;24.87;;;;;;;2.13;78.46;96138.09;1720692;82;21548;-80
2021/03/05 02:48:20;;;;;;;43.45;26.27;;;;;;;1.99;78.59;96135.94;1693080;82;21119;-80
2021/03/05 02:50:52;;;;;;;36.53;23.73;;;;;;;1.94;78.76;96138.06;1741304;81;21119;-80
2021/03/05 02:53:19;;;;;;;33.42;22.87;;;;;;;1.84;78.94;96141.11;1720564;82;21123;-80
2021/03/05 02:55:48;;;;;;;37.58;25.00;;;;;;;1.77;79.18;96149.31;1741076;82;21127;-80
2021/03/05 02:58:14;;;;;;;40.45;26.95;;;;;;;1.68;79.47;96146.28;1741050;82;21119;-80
2021/03/05 03:00:42;;;;;;;40.23;26.15;;;;;;;1.74;79.92;96143.66;1741128;82;21311;-80
2021/03/05 03:03:08;;;;;;;39.25;26.45;;;;;;;1.79;79.81;96146.64;1741357;82;21144;-80
2021/03/05 03:05:35;;;;;;;42.17;28.83;;;;;;;1.84;79.86;96144.95;1741074;82;21272;-80
2021/03/05 03:08:02;;;;;;;43.68;29.75;;;;;;;1.87;79.67;96151.90;1741256;82;21079;-80
2021/03/05 03:10:28;;;;;;;32.03;22.50;;;;;;;1.83;79.81;96161.27;1741187;82;21091;-80
2021/03/05 03:12:57;;;;;;;46.05;30.02;;;;;;;1.80;79.97;96161.07;1741203;82;21237;-80
2021/03/05 03:15:26;;;;;;;46.18;29.35;;;;;;;1.75;79.89;96161.45;1741102;81;21127;-80
2021/03/05 03:17:52;;;;;;;47.75;30.57;;;;;;;1.68;79.85;96162.93;1741159;82;21140;-80
2021/03/05 03:20:20;;;;;;;53.15;36.15;;;;;;;1.65;80.08;96159.36;1741077;82;21106;-80
2021/03/05 03:22:46;;;;;;;56.23;36.58;;;;;;;1.63;80.06;96154.84;1741147;82;21163;-80
2021/03/05 03:25:13;;;;;;;57.53;35.28;;;;;;;1.67;80.27;96166.44;1741262;82;21111;-80
2021/03/05 03:27:40;;;;;;;47.38;32.25;;;;;;;1.70;80.36;96172.57;1741211;82;21298;-80
2021/03/05 03:30:13;;;;;;;60.65;36.38;;;;;;;1.67;80.47;96169.47;1741065;82;21381;-80
2021/03/05 03:32:39;;;;;;;67.95;39.67;;;;;;;1.54;80.38;96166.33;1741181;82;21075;-80
2021/03/05 03:35:08;;;;;;;60.88;36.88;;;;;;;1.47;80.55;96163.50;1741120;82;21337;-80
2021/03/05 03:37:35;;;;;;;56.80;36.95;;;;;;;1.42;80.68;96167.70;1740766;82;21166;-80
2021/03/05 03:40:16;;;;;;;50.45;32.95;;;;;;;1.42;80.70;96171.55;1741400;82;21225;-80
2021/03/05 03:42:52;;;;;;;55.58;33.83;;;;;;;1.44;80.69;96176.54;1824744;77;23017;-79
2021/03/05 03:45:20;;;;;;;42.35;27.93;;;;;;;1.32;80.69;96178.88;1828637;78;21153;-79
2021/03/05 03:47:48;;;;;;;62.93;39.67;;;;;;;1.26;81.26;96175.06;1762021;81;21133;-79
2021/03/05 03:50:21;;;;;;;45.50;28.05;;;;;;;1.22;81.28;96183.95;1771708;81;21451;-79
2021/03/05 03:53:00;;;;;;;49.25;30.48;;;;;;;1.26;81.46;96189.14;1771667;81;21106;-79
2021/03/05 03:55:26;;;;;;;55.10;34.85;;;;;;;1.23;81.44;96196.28;1771596;81;21382;-79
2021/03/05 03:57:53;;;;;;;55.05;36.80;;;;;;;1.24;81.41;96199.98;1771974;81;21129;-79
2021/03/05 04:00:20;;;;;;;45.08;27.32;;;;;;;1.27;81.33;96204.84;1743772;81;21157;-79
2021/03/05 04:02:52;;;;;;;55.98;34.38;;;;;;;1.26;81.44;96211.38;1771708;81;21114;-79
2021/03/05 04:05:26;;;;;;;55.85;33.08;;;;;;;1.20;81.37;96213.52;1770647;81;21467;-79
2021/03/05 04:08:02;;;;;;;49.85;32.55;;;;;;;1.25;81.57;96216.15;1780443;79;23395;-79
2021/03/05 04:10:28;;;;;;;50.45;32.78;;;;;;;1.24;81.37;96219.18;1754395;81;21154;-79
2021/03/05 04:12:55;;;;;;;38.65;26.60;;;;;;;1.29;81.51;96220.06;1724594;82;21145;-79
2021/03/05 04:15:22;;;;;;;29.07;21.05;;;;;;;1.32;81.38;96233.92;1724892;82;21261;-79
2021/03/05 04:17:48;;;;;;;31.87;22.87;;;;;;;1.28;81.19;96227.41;1700855;82;21125;-79
2021/03/05 04:20:15;;;;;;;28.55;20.45;;;;;;;1.22;81.40;96224.09;1754415;82;21146;-79
2021/03/05 04:22:43;;;;;;;28.77;21.62;;;;;;;1.20;81.52;96227.59;1755082;82;21264;-80
2021/03/05 04:25:13;;;;;;;28.05;19.80;;;;;;;1.16;81.51;96228.80;1754999;81;21106;-80
2021/03/05 04:27:39;;;;;;;32.70;24.92;;;;;;;1.13;81.50;96232.05;1754747;81;21162;-80
2021/03/05 04:30:06;;;;;;;34.95;25.35;;;;;;;1.14;81.55;96229.86;1754912;82;21130;-80
2021/03/05 04:32:32;;;;;;;34.70;26.23;;;;;;;1.15;81.42;96225.89;1755057;82;21233;-80
2021/03/05 04:34:58;;;;;;;36.33;26.17;;;;;;;1.20;81.69;96221.19;1725618;82;21225;-80
2021/03/05 04:37:24;;;;;;;36.88;25.68;;;;;;;1.27;81.69;96221.95;1755039;82;21126;-80
2021/03/05 04:39:50;;;;;;;36.75;27.42;;;;;;;1.31;81.57;96227.17;1754953;82;21134;-80
2021/03/05 04:42:16;;;;;;;32.90;25.50;;;;;;;1.31;81.56;96224.15;1725593;82;21087;-80
2021/03/05 04:44:42;;;;;;;28.50;21.48;;;;;;;1.39;81.54;96222.20;1755049;82;21302;-80
2021/03/05 04:47:08;;;;;;;16.30;13.10;;;;;;;1.38;81.22;96215.47;1754936;82;21122;-80
2021/03/05 04:49:34;;;;;;;27.52;21.62;;;;;;;1.33;81.05;96218.89;1754974;82;21121;-80
2021/03/05 04:52:00;;;;;;;23.52;19.07;;;;;;;1.26;81.10;96218.58;1754974;82;21330;-80
2021/03/05 04:54:26;;;;;;;32.25;24.75;;;;;;;1.28;81.29;96217.98;1754946;81;21087;-80
2021/03/05 04:56:52;;;;;;;35.17;26.42;;;;;;;1.20;81.32;96217.35;1755231;81;21122;-80
2021/03/05 04:59:18;;;;;;;33.95;24.27;;;;;;;1.22;81.65;96222.34;1755059;81;21135;-80
2021/03/05 05:01:44;;;;;;;34.00;24.95;;;;;;;1.24;81.56;96221.74;1755014;82;21103;-80
2021/03/05 05:04:10;;;;;;;29.80;20.68;;;;;;;1.25;81.40;96225.11;1755161;82;21102;-80
2021/03/05 05:06:37;;;;;;;26.70;17.52;;;;;;;1.16;81.74;96226.23;1750566;82;21326;-80
2021/03/05 05:09:03;;;;;;;36.73;22.67;;;;;;;1.05;81.82;96226.77;1741805;81;21080;-80
2021/03/05 05:11:29;;;;;;;42.45;27.35;;;;;;;0.95;81.64;96231.82;1741730;82;21144;-80
2021/03/05 05:13:55;;;;;;;27.98;19.27;;;;;;;0.88;81.60;96230.72;1741797;82;21155;-80
2021/03/05 05:16:21;;;;;;;46.20;29.18;;;;;;;0.87;81.78;96236.30;1741765;82;21130;-80
2021/03/05 05:18:47;;;;;;;36.68;23.87;;;;;;;0.80;81.82;96236.44;1741333;82;21079;-80
2021/03/05 05:21:13;;;;;;;30.92;19.95;;;;;;;0.77;81.80;96235.88;1741232;82;21114;-80
2021/03/05 05:23:39;;;;;;;44.80;29.00;;;;;;;0.78;81.81;96239.59;1741351;82;21115;-80
2021/03/05 05:26:05;;;;;;;36.00;22.60;;;;;;;0.72;81.61;96238.83;1741165;82;21136;-80
2021/03/05 05:28:32;;;;;;;42.45;25.65;;;;;;;0.67;81.78;96236.31;1741186;82;21135;-80
2021/03/05 05:30:58;;;;;;;45.58;27.13;;;;;;;0.60;81.79;96238.53;1741090;82;21330;-80
2021/03/05 05:33:24;;;;;;;45.10;26.23;;;;;;;0.65;81.81;96238.15;1741218;82;21536;-80
2021/03/05 05:35:50;;;;;;;39.18;25.32;;;;;;;0.69;81.74;96235.71;1741337;82;21135;-80
2021/03/05 05:38:16;;;;;;;42.80;24.57;;;;;;;0.70;81.50;96232.22;1741217;82;21126;-80
2021/03/05 05:40:42;;;;;;;42.67;25.25;;;;;;;0.68;81.56;96228.51;1741306;82;21080;-80
2021/03/05 05:43:08;;;;;;;41.42;26.27;;;;;;;0.71;81.64;96230.81;1741166;82;21230;-80
2021/03/05 05:45:35;;;;;;;42.03;26.10;;;;;;;0.71;81.56;96237.20;1741302;82;21310;-80
2021/03/05 05:48:01;;;;;;;41.10;25.80;;;;;;;0.69;81.54;96236.52;1741296;82;21107;-80
2021/03/05 05:50:28;;;;;;;44.18;27.13;;;;;;;0.71;81.66;96248.71;1741141;81;21107;-80
2021/03/05 05:52:55;;;;;;;42.13;25.37;;;;;;;0.64;81.63;96246.29;1741176;81;21265;-80
2021/03/05 05:55:21;;;;;;;42.93;25.27;;;;;;;0.63;81.52;96249.78;1741179;82;21087;-80
2021/03/05 05:57:47;;;;;;;33.67;19.52;;;;;;;0.61;81.79;96243.98;1741178;82;21103;-80
2021/03/05 06:00:14;;;;;;;25.43;13.15;;;;;;;0.53;81.72;96251.48;1741223;82;21115;-80
2021/03/05 06:02:42;;;;;;;41.02;22.62;;;;;;;0.48;82.15;96248.45;1720386;82;21143;-80
2021/03/05 06:05:11;;;;;;;28.73;18.73;;;;;;;0.41;81.91;96253.73;1741145;82;21330;-80
2021/03/05 06:07:38;;;;;;;40.12;22.80;;;;;;;0.36;81.88;96259.21;1749867;81;21409;-80
2021/03/05 06:10:06;;;;;;;19.82;11.38;;;;;;;0.34;82.05;96271.30;1755177;82;21317;-80
2021/03/05 06:12:32;;;;;;;32.35;19.70;;;;;;;0.33;82.17;96280.38;1755223;82;21083;-80
2021/03/05 06:14:58;;;;;;;30.45;20.20;;;;;;;0.31;82.29;96277.91;1755169;82;21098;-80
2021/03/05 06:17:46;;;;;;;38.05;23.07;;;;;;;0.30;82.14;96280.94;1755247;81;21122;-80
2021/03/05 06:20:13;;;;;;;30.77;19.60;;;;;;;0.32;82.19;96287.67;1755346;82;21101;-80
2021/03/05 06:22:39;;;;;;;39.27;24.05;;;;;;;0.30;82.32;96282.21;1755533;81;21118;-80
2021/03/05 06:25:07;;;;;;;41.68;24.18;;;;;;;0.30;82.28;96286.52;1754854;81;21868;-80
2021/03/05 06:27:34;;;;;;;33.80;20.48;;;;;;;0.36;82.35;96294.19;1755146;82;21170;-80
2021/03/05 06:30:00;;;;;;;38.60;22.52;;;;;;;0.45;82.29;96289.14;1727538;82;21094;-80
2021/03/05 06:32:38;;;;;;;32.75;20.65;;;;;;;0.51;82.25;96298.09;1755183;82;21071;-80
2021/03/05 06:35:14;;;;;;;27.75;16.32;;;;;;;0.52;82.11;96303.08;1780665;79;23065;-80
2021/03/05 06:37:45;;;;;;;28.80;18.52;;;;;;;0.42;82.02;96308.56;1724589;82;21467;-79
2021/03/05 06:40:12;;;;;;;28.55;17.73;;;;;;;0.39;82.21;96308.80;1754472;81;21142;-80
2021/03/05 06:42:51;;;;;;;28.98;18.92;;;;;;;0.41;82.38;96308.22;1754384;82;21158;-79
2021/03/05 06:45:20;;;;;;;32.42;21.75;;;;;;;0.43;82.17;96310.18;1754388;82;21448;-80
2021/03/05 06:48:03;;;;;;;24.75;17.15;;;;;;;0.46;82.25;96310.41;1754330;82;21154;-79
2021/03/05 06:50:31;;;;;;;27.75;17.12;;;;;;;0.43;82.12;96312.73;1753640;81;21126;-79
2021/03/05 06:52:57;;;;;;;29.98;18.55;;;;;;;0.43;82.58;96319.59;1755080;82;21309;-80
2021/03/05 06:55:23;;;;;;;24.72;16.60;;;;;;;0.36;82.28;96323.11;1725696;82;21102;-80
2021/03/05 06:57:53;;;;;;;31.55;19.98;;;;;;;0.34;82.30;96323.70;1755008;81;21322;-80
2021/03/05 07:00:22;;;;;;;21.12;12.80;;;;;;;0.31;82.36;96323.91;1755002;82;21322;-80
2021/03/05 07:02:49;;;;;;;28.35;17.48;;;;;;;0.33;82.53;96328.94;1755084;82;21318;-80
2021/03/05 07:05:17;;;;;;;35.58;21.50;;;;;;;0.36;82.56;96329.50;1754978;82;21217;-80
2021/03/05 07:07:44;;;;;;;22.48;14.85;;;;;;;0.39;82.42;96336.92;1755107;81;21106;-80
2021/03/05 07:10:14;;;;;;;32.30;20.57;;;;;;;0.43;82.50;96334.47;1754999;81;21213;-80
2021/03/05 07:13:02;;;;;;;25.25;15.90;;;;;;;0.42;82.36;96343.53;1754963;82;21079;-80
2021/03/05 07:15:28;;;;;;;26.33;16.73;;;;;;;0.45;82.56;96344.10;1754395;82;21119;-80
2021/03/05 07:17:54;;;;;;;34.03;20.02;;;;;;;0.42;82.65;96349.46;1755020;82;21106;-80
2021/03/05 07:20:20;;;;;;;32.50;20.72;;;;;;;0.40;82.57;96353.88;1755143;81;21087;-80
2021/03/05 07:22:47;;;;;;;31.33;21.73;;;;;;;0.41;82.52;96355.50;1754986;82;21225;-80
2021/03/05 07:25:16;;;;;;;32.67;22.75;;;;;;;0.50;82.61;96366.77;1754923;82;21118;-81
2021/03/05 07:27:43;;;;;;;30.00;19.65;;;;;;;0.59;82.55;96358.36;1755035;81;21274;-80
2021/03/05 07:30:12;;;;;;;27.77;19.55;;;;;;;0.60;82.32;96362.08;1755022;82;21432;-80
2021/03/05 07:32:49;;;;;;;30.48;21.17;;;;;;;0.59;82.30;96368.59;1754797;81;21122;-80
2021/03/05 07:35:23;;;;;;;24.65;16.75;;;;;;;0.61;82.27;96369.28;1755706;82;21142;-80
2021/03/05 07:37:54;;;;;;;30.68;20.15;;;;;;;0.62;82.06;96379.03;1755951;82;21234;-80
2021/03/05 07:40:21;;;;;;;22.65;16.20;;;;;;;0.64;82.14;96381.81;1756038;81;21106;-80
2021/03/05 07:42:47;;;;;;;27.20;16.67;;;;;;;0.68;82.37;96376.83;1731916;82;21283;-80
2021/03/05 07:45:14;;;;;;;24.60;16.15;;;;;;;0.62;82.06;96388.80;1698901;83;21129;-80
2021/03/05 07:47:43;;;;;;;32.73;19.87;;;;;;;0.60;82.23;96390.20;1725277;83;21369;-80
2021/03/05 07:50:10;;;;;;;30.55;22.87;;;;;;;0.60;82.16;96388.92;1725310;83;21240;-80
2021/03/05 07:52:37;;;;;;;21.48;12.47;;;;;;;0.63;82.22;96393.45;1725275;83;21117;-80
2021/03/05 07:55:04;;;;;;;30.97;19.52;;;;;;;0.62;82.39;96391.83;1725344;83;21150;-80
2021/03/05 07:57:38;;;;;;;31.68;20.72;;;;;;;0.66;82.44;96397.06;1725295;83;21325;-80
2021/03/05 08:00:06;;;;;;;23.12;15.45;;;;;;;0.69;82.25;96398.09;1725265;83;21224;-80
2021/03/05 08:02:55;;;;;;;23.27;17.20;;;;;;;0.69;82.15;96398.09;1725291;83;21125;-80
2021/03/05 08:05:32;;;;;;;25.20;18.40;;;;;;;0.70;82.29;96401.81;1725376;83;21321;-80
2021/03/05 08:08:26;;;;;;;28.85;20.20;;;;;;;0.64;82.20;96403.55;1725258;83;21464;-80
2021/03/05 08:10:55;;;;;;;29.07;19.55;;;;;;;0.59;82.34;96409.03;1725003;83;21346;-80
2021/03/05 08:16:33;;;;;;;31.00;18.73;;;;;;;0.83;82.63;96410.63;1725411;83;21134;-79
2021/03/05 08:19:14;;;;;;;31.15;19.52;;;;;;;0.97;82.13;96412.06;1725250;83;21138;-80
2021/03/05 08:21:58;;;;;;;30.82;20.02;;;;;;;1.10;82.33;96408.88;1725370;83;21117;-80
2021/03/05 08:24:28;;;;;;;28.55;20.55;;;;;;;1.23;82.06;96416.39;1691695;83;21098;-79
2021/03/05 08:27:06;;;;;;;31.25;20.62;;;;;;;1.20;81.70;96422.58;1725396;83;21456;-79
2021/03/05 08:29:57;;;;;;;35.58;22.80;;;;;;;1.22;81.61;96433.97;1698339;83;21131;-80
2021/03/05 08:32:37;;;;;;;34.60;22.30;;;;;;;1.24;81.42;96435.94;1725232;82;21098;-80
2021/03/05 08:35:08;;;;;;;29.98;19.82;;;;;;;1.22;81.16;96440.37;1715082;83;21155;-80
2021/03/05 08:37:41;;;;;;;36.53;22.77;;;;;;;1.20;81.19;96440.02;1711660;84;21142;-80
2021/03/05 08:40:18;;;;;;;22.73;14.38;;;;;;;1.14;81.26;96440.99;1711803;84;21127;-80
2021/03/05 08:42:47;;;;;;;31.10;19.52;;;;;;;1.10;81.18;96436.56;1710516;84;21146;-79
2021/03/05 08:45:19;;;;;;;33.55;21.23;;;;;;;0.99;81.18;96438.37;1711787;83;21145;-79
2021/03/05 08:47:46;;;;;;;;;;;;;;;0.96;81.45;96447.07;1714197;84;21111;-79
2021/03/05 08:50:14;;;;;;;25.88;17.48;;;;;;;0.97;81.51;96448.69;1711952;84;20133;-80
2021/03/05 08:52:43;;;;;;;27.20;19.25;;;;;;;0.97;81.63;96447.88;1711754;83;21249;-79
2021/03/05 08:55:10;;;;;;;25.20;18.05;;;;;;;1.03;81.73;96445.67;1711716;83;21141;-80
2021/03/05 08:57:41;;;;;;;15.40;11.05;;;;;;;1.04;81.66;96451.13;1711725;84;21131;-79
2021/03/05 09:00:09;;;;;;;29.85;20.43;;;;;;;0.97;81.90;96453.81;1711763;84;21361;-80
2021/03/05 09:02:36;;;;;;;29.25;21.23;;;;;;;0.83;81.48;96456.20;1677679;85;21611;-79
2021/03/05 09:05:02;;;;;;;29.67;19.73;;;;;;;0.74;81.69;96464.57;1677577;85;21182;-80
2021/03/05 09:07:29;;;;;;;36.20;24.37;;;;;;;0.64;82.02;96471.78;1673061;86;21141;-79
2021/03/05 09:09:55;;;;;;;20.77;14.47;;;;;;;0.58;82.34;96473.89;1672931;86;21135;-80
2021/03/05 09:12:22;;;;;;;30.27;19.57;;;;;;;0.56;82.47;96485.17;1672915;86;21107;-79
2021/03/05 09:15:02;;;;;;;23.20;14.98;;;;;;;0.58;82.25;96479.47;1672580;86;21466;-80
2021/03/05 09:17:28;;;;;;;13.65;9.43;;;;;;;0.58;81.99;96489.70;1672340;86;21151;-79
2021/03/05 09:19:54;;;;;;;22.45;14.50;;;;;;;0.43;81.97;96490.40;1672350;86;21269;-79
2021/03/05 09:22:22;;;;;;;19.67;14.05;;;;;;;0.36;81.89;96491.00;1672287;86;21257;-79
2021/03/05 09:25:06;;;;;;;18.15;14.23;;;;;;;0.44;82.23;96496.33;1673038;86;21143;-80
2021/03/05 09:27:39;;;;;;;19.10;14.03;;;;;;;0.42;81.87;96497.72;1644373;86;21245;-80
2021/03/05 09:30:22;;;;;;;19.10;13.32;;;;;;;0.47;81.94;96496.90;1673005;85;21249;-80
2021/03/05 09:32:53;;;;;;;11.35;8.58;;;;;;;0.50;81.96;96500.53;1672993;85;21146;-79
2021/03/05 09:35:26;;;;;;;18.17;13.72;;;;;;;0.64;81.72;96507.59;1672874;85;21154;-79
2021/03/05 09:37:52;;;;;;;;;;;;;;;0.77;81.63;96510.84;1675419;86;21248;-80
2021/03/05 09:40:18;;;;;;;14.45;11.10;;;;;;;0.93;81.64;96515.58;1706565;84;20137;-79
2021/03/05 09:42:56;;;;;;;19.35;13.30;;;;;;;0.99;81.09;96519.77;1706590;84;21110;-79
2021/03/05 09:45:47;;;;;;;17.02;13.55;;;;;;;0.92;80.57;96514.77;1706630;84;21127;-81
2021/03/05 09:48:30;;;;;;;18.48;14.53;;;;;;;0.85;80.92;96532.34;1706733;84;21316;-80
2021/03/05 09:51:03;;;;;;;11.08;9.40;;;;;;;0.88;81.07;96528.27;1706441;84;21067;-81
2021/03/05 09:53:31;;;;;;;14.75;11.10;;;;;;;0.88;80.80;96532.11;1711850;84;21331;-80
2021/03/05 09:56:04;;;;;;;22.15;16.05;;;;;;;0.77;80.61;96536.41;1711654;83;21112;-80
2021/03/05 09:58:30;;;;;;;20.35;16.00;;;;;;;0.71;80.85;96534.33;1711503;84;21111;-80
2021/03/05 10:00:57;;;;;;;20.90;14.93;;;;;;;0.67;80.83;96538.06;1711856;84;21126;-80
2021/03/05 10:03:23;;;;;;;13.28;10.35;;;;;;;0.67;80.85;96538.88;1711719;84;21135;-81
2021/03/05 10:05:49;;;;;;;20.62;14.47;;;;;;;0.70;81.00;96538.64;1677566;85;21280;-80
2021/03/05 10:08:27;;;;;;;21.87;15.65;;;;;;;0.62;80.65;96539.67;1672834;86;21245;-80
2021/03/05 10:11:12;;;;;;;19.27;14.50;;;;;;;0.69;80.95;96545.15;1673161;86;21121;-80
2021/03/05 10:13:52;;;;;;;17.32;13.10;;;;;;;0.72;80.72;96546.19;1672941;85;21362;-80
2021/03/05 10:16:21;;;;;;;18.20;13.35;;;;;;;0.84;80.73;96556.77;1672941;86;21099;-80
2021/03/05 10:18:51;;;;;;;16.12;14.07;;;;;;;0.85;80.55;96557.93;1672937;85;21326;-80
2021/03/05 10:21:18;;;;;;;13.45;11.45;;;;;;;0.93;80.58;96560.35;1672915;86;21123;-80
2021/03/05 10:23:47;;;;;;;14.87;11.50;;;;;;;1.04;80.28;96582.10;1672910;85;21122;-80
2021/03/05 10:26:21;;;;;;;11.40;8.73;;;;;;;1.01;80.18;96582.34;1672969;85;21557;-80
2021/03/05 10:28:57;;;;;;;17.00;13.68;;;;;;;0.90;79.82;96583.97;1672957;86;21410;-80
2021/03/05 10:31:45;;;;;;;11.55;8.53;;;;;;;0.77;79.77;96587.56;1672907;85;21249;-80
2021/03/05 10:34:29;;;;;;;12.13;9.78;;;;;;;0.72;80.00;96594.78;1673662;84;21434;-80
2021/03/05 10:37:00;;;;;;;13.72;10.60;;;;;;;0.78;79.97;96607.09;1687243;85;21380;-80
2021/03/05 10:39:33;;;;;;;14.40;10.93;;;;;;;0.86;79.93;96607.34;1678258;85;21107;-80
2021/03/05 10:42:01;;;;;;;15.58;11.20;;;;;;;0.87;80.06;96609.79;1687522;85;21149;-80
2021/03/05 10:44:29;;;;;;;13.72;9.88;;;;;;;1.06;80.20;96613.50;1677816;85;21451;-80
2021/03/05 10:46:57;;;;;;;16.17;11.43;;;;;;;1.27;79.03;96609.28;1687602;85;21494;-80
2021/03/05 10:49:23;;;;;;;12.78;10.70;;;;;;;1.47;78.85;96615.44;1678230;85;21099;-80
2021/03/05 10:51:49;;;;;;;15.00;10.38;;;;;;;1.78;78.92;96606.94;1658486;86;21486;-80
2021/03/05 10:54:16;;;;;;;13.62;10.15;;;;;;;2.28;78.69;96613.62;1687633;85;21198;-80
2021/03/05 10:56:42;;;;;;;13.62;9.98;;;;;;;2.49;77.06;96616.65;1666665;85;21133;-80
2021/03/05 10:59:11;;;;;;;13.68;10.58;;;;;;;2.31;75.49;96618.50;1666570;86;21241;-80
2021/03/05 11:01:39;;;;;;;13.10;10.18;;;;;;;2.12;76.85;96624.77;1666657;85;21151;-80
2021/03/05 11:04:05;;;;;;;12.13;10.08;;;;;;;1.82;75.98;96634.91;1662551;86;21119;-80
2021/03/05 11:06:31;;;;;;;12.95;9.55;;;;;;;1.51;76.63;96643.70;1658438;86;21133;-80
2021/03/05 11:09:00;;;;;;;15.08;9.40;;;;;;;1.33;77.05;96654.91;1687748;85;21130;-80
2021/03/05 11:11:26;;;;;;;14.70;10.75;;;;;;;1.26;76.92;96648.61;1678202;85;21363;-80
2021/03/05 11:13:52;;;;;;;12.25;9.20;;;;;;;1.41;77.41;96654.30;1658469;86;21482;-80
2021/03/05 11:16:18;;;;;;;14.75;10.45;;;;;;;1.58;77.01;96648.69;1678249;85;21146;-80
2021/03/05 11:18:44;;;;;;;17.02;11.28;;;;;;;1.78;77.07;96652.24;1658451;86;21121;-80
2021/03/05 11:21:10;;;;;;;18.55;12.15;;;;;;;2.01;77.35;96657.66;1678534;85;21122;-80
2021/03/05 11:23:36;;;;;;;16.05;12.55;;;;;;;2.20;77.39;96649.78;1658576;86;21118;-80
2021/03/05 11:26:02;;;;;;;10.63;7.20;;;;;;;2.17;75.44;96652.59;1678342;85;21087;-80
2021/03/05 11:28:28;;;;;;;15.98;11.68;;;;;;;1.93;75.15;96652.78;1687958;85;21133;-80
2021/03/05 11:30:54;;;;;;;17.95;13.72;;;;;;;1.65;76.21;96664.41;1666710;85;21128;-80
2021/03/05 11:33:20;;;;;;;16.45;11.97;;;;;;;1.43;76.52;96663.95;1666743;86;21364;-80
2021/03/05 11:35:46;;;;;;;13.65;10.00;;;;;;;1.40;76.75;96665.48;1661425;85;21149;-80
2021/03/05 11:38:12;;;;;;;16.65;12.85;;;;;;;1.31;76.33;96667.02;1658502;86;21145;-80
2021/03/05 11:40:38;;;;;;;20.82;12.70;;;;;;;1.40;76.70;96670.60;1658793;86;21162;-80